Time;durP1;ratioP1;P1;durP2;ratioP2;P2;SDS_P1;SDS_P2;PMS_P1;PMS_P2;Temp;Humidity;BMP_temperature;BMP_pressure;BME280_temperature;BME280_humidity;BME280_pressure;Samples;Min_cycle;Max_cycle;Signal;HPM_P1;HPM_P2
2024/01/21 00:01:00;;;;;;;7.72;4.07;;;1.00;99.90;;;;;;5093373;28;20075;-65
2024/01/21 00:03:26;;;;;;;10.85;4.70;;;1.00;99.90;;;;;;5093309;28;20071;-65
2024/01/21 00:05:51;;;;;;;10.73;4.57;;;1.10;99.90;;;;;;5093453;28;20043;-64
2024/01/21 00:08:17;;;;;;;6.20;4.00;;;1.00;99.90;;;;;;5093404;28;20092;-65
2024/01/21 00:10:43;;;;;;;10.68;4.07;;;1.00;99.90;;;;;;5093364;28;20055;-66
2024/01/21 00:13:08;;;;;;;10.90;4.88;;;1.00;99.90;;;;;;5093336;28;20033;-65
2024/01/21 00:15:34;;;;;;;13.23;5.57;;;1.00;99.90;;;;;;5093341;28;20025;-66
2024/01/21 00:18:01;;;;;;;9.63;4.35;;;1.00;99.90;;;;;;5093401;28;20036;-66
2024/01/21 00:20:30;;;;;;;13.23;4.70;;;1.00;99.90;;;;;;5093035;28;20044;-65
2024/01/21 00:22:57;;;;;;;7.30;3.85;;;0.90;99.90;;;;;;5093104;28;20039;-66
2024/01/21 00:25:22;;;;;;;11.43;4.57;;;0.80;99.90;;;;;;5093202;28;20048;-66
2024/01/21 00:27:48;;;;;;;12.95;4.50;;;0.80;99.90;;;;;;5093031;28;20032;-66
2024/01/21 00:30:14;;;;;;;11.05;4.78;;;0.80;99.90;;;;;;5093114;28;20058;-65
2024/01/21 00:32:39;;;;;;;11.25;4.95;;;0.80;99.90;;;;;;5092771;28;20028;-65
2024/01/21 00:35:05;;;;;;;9.18;4.50;;;0.80;99.90;;;;;;5092846;28;20112;-65
2024/01/21 00:37:31;;;;;;;8.18;4.35;;;0.80;99.90;;;;;;5092845;28;20040;-65
2024/01/21 00:39:57;;;;;;;8.45;4.38;;;0.70;99.90;;;;;;5092892;28;20016;-65
2024/01/21 00:42:22;;;;;;;9.95;4.30;;;0.70;99.90;;;;;;5092218;28;20036;-65
2024/01/21 00:44:49;;;;;;;11.60;4.80;;;0.70;99.90;;;;;;5092684;28;20025;-66
2024/01/21 00:47:15;;;;;;;12.55;4.50;;;0.70;99.90;;;;;;5092738;28;20021;-65
2024/01/21 00:49:40;;;;;;;10.65;4.10;;;0.70;99.90;;;;;;5092614;28;20087;-65
2024/01/21 00:52:06;;;;;;;11.18;4.45;;;0.70;99.90;;;;;;5092643;28;20017;-65
2024/01/21 00:54:32;;;;;;;7.88;4.15;;;0.60;99.90;;;;;;5092562;28;20063;-66
2024/01/21 00:56:58;;;;;;;7.50;4.57;;;0.60;99.90;;;;;;5092615;28;20029;-65
2024/01/21 00:59:24;;;;;;;7.93;3.97;;;0.60;99.90;;;;;;5092553;28;20036;-66
2024/01/21 01:01:49;;;;;;;9.48;4.30;;;0.60;99.90;;;;;;5092483;28;20040;-66
2024/01/21 01:04:15;;;;;;;9.50;4.40;;;0.60;99.90;;;;;;5092180;28;20021;-66
2024/01/21 01:06:40;;;;;;;9.20;3.85;;;0.60;99.90;;;;;;5092413;28;20390;-65
2024/01/21 01:09:06;;;;;;;8.30;4.15;;;0.60;99.90;;;;;;5092421;28;20055;-65
2024/01/21 01:11:32;;;;;;;8.30;4.07;;;0.50;99.90;;;;;;5092420;28;20033;-65
2024/01/21 01:13:58;;;;;;;11.07;4.65;;;0.50;99.90;;;;;;5092344;28;20033;-65
2024/01/21 01:16:23;;;;;;;11.73;4.60;;;0.50;99.90;;;;;;5092488;28;20033;-66
2024/01/21 01:18:49;;;;;;;12.18;5.07;;;0.40;99.90;;;;;;5092311;28;20035;-65
2024/01/21 01:21:15;;;;;;;10.40;5.18;;;0.40;99.90;;;;;;5092282;28;20020;-65
2024/01/21 01:23:40;;;;;;;14.23;5.80;;;0.40;99.90;;;;;;5092239;28;20033;-66
2024/01/21 01:26:07;;;;;;;15.25;5.45;;;0.40;99.90;;;;;;5092341;28;20033;-65
2024/01/21 01:28:33;;;;;;;10.15;4.10;;;0.40;99.90;;;;;;5092237;28;20059;-65
2024/01/21 01:30:59;;;;;;;11.18;3.92;;;0.40;99.90;;;;;;5092334;28;20036;-66
2024/01/21 01:33:24;;;;;;;10.43;4.80;;;0.40;99.90;;;;;;5091889;28;20024;-65
2024/01/21 01:35:50;;;;;;;8.55;4.03;;;0.40;99.90;;;;;;5092139;28;20028;-65
2024/01/21 01:38:16;;;;;;;8.85;3.97;;;0.40;99.90;;;;;;5092182;28;20032;-66
2024/01/21 01:40:42;;;;;;;9.82;3.92;;;0.30;99.90;;;;;;5092109;28;20028;-65
2024/01/21 01:43:08;;;;;;;7.97;3.50;;;0.30;99.90;;;;;;5092024;28;20029;-65
2024/01/21 01:45:33;;;;;;;10.32;3.83;;;0.30;99.90;;;;;;5092023;28;20039;-65
2024/01/21 01:47:59;;;;;;;8.63;3.40;;;0.30;99.90;;;;;;5091876;28;20067;-65
2024/01/21 01:50:26;;;;;;;8.13;4.13;;;0.30;99.90;;;;;;5091892;28;20112;-65
2024/01/21 01:52:52;;;;;;;10.18;3.33;;;0.20;99.90;;;;;;5090891;28;20029;-65
2024/01/21 01:55:18;;;;;;;5.93;3.30;;;0.20;99.90;;;;;;5094489;28;20059;-65
2024/01/21 01:57:47;;;;;;;7.13;3.35;;;0.10;99.90;;;;;;5095987;28;20020;-65
2024/01/21 02:00:14;;;;;;;8.43;3.10;;;0.10;99.90;;;;;;5095644;28;20052;-65
2024/01/21 02:02:41;;;;;;;10.48;3.58;;;0.00;99.90;;;;;;5095635;28;20028;-66
2024/01/21 02:05:07;;;;;;;9.55;3.78;;;0.00;99.90;;;;;;5095818;28;20039;-65
2024/01/21 02:07:33;;;;;;;7.25;3.10;;;0.10;99.90;;;;;;5095710;28;20435;-66
2024/01/21 02:10:00;;;;;;;6.25;2.72;;;0.10;99.90;;;;;;5095762;28;20024;-65
2024/01/21 02:12:25;;;;;;;6.25;3.20;;;0.10;99.90;;;;;;5095730;28;20048;-66
2024/01/21 02:14:51;;;;;;;7.85;2.83;;;0.10;99.90;;;;;;5095610;28;20024;-65
2024/01/21 02:17:17;;;;;;;6.40;3.03;;;0.20;99.90;;;;;;5095586;28;20029;-65
2024/01/21 02:19:42;;;;;;;5.25;2.55;;;0.20;99.90;;;;;;5095443;28;20025;-66
2024/01/21 02:22:08;;;;;;;8.95;3.55;;;0.30;99.90;;;;;;5095580;28;20052;-66
2024/01/21 02:24:33;;;;;;;7.45;2.65;;;0.30;99.90;;;;;;5095499;28;20035;-66
2024/01/21 02:27:00;;;;;;;7.45;3.78;;;0.30;99.90;;;;;;5095464;28;20495;-66
2024/01/21 02:29:26;;;;;;;4.68;2.42;;;0.30;99.90;;;;;;5095336;28;20036;-65
2024/01/21 02:31:53;;;;;;;9.07;2.83;;;0.40;99.90;;;;;;5095326;28;20052;-65
2024/01/21 02:34:19;;;;;;;8.02;2.90;;;0.40;99.90;;;;;;5094979;28;20036;-66
2024/01/21 02:36:45;;;;;;;8.60;2.58;;;0.40;99.90;;;;;;5095256;28;20027;-65
2024/01/21 02:39:11;;;;;;;6.57;2.20;;;0.40;99.90;;;;;;5095153;28;20033;-65
2024/01/21 02:41:36;;;;;;;6.80;3.35;;;0.40;99.90;;;;;;5095094;28;20028;-66
2024/01/21 02:44:02;;;;;;;4.30;2.45;;;0.40;99.90;;;;;;5094953;28;20040;-65
2024/01/21 02:46:28;;;;;;;6.18;3.03;;;0.40;99.90;;;;;;5095199;28;20021;-65
2024/01/21 02:48:53;;;;;;;5.90;2.50;;;0.40;99.90;;;;;;5095009;28;20024;-66
2024/01/21 02:51:19;;;;;;;6.25;3.20;;;0.50;99.90;;;;;;5095032;28;20033;-65
2024/01/21 02:53:45;;;;;;;5.15;2.50;;;0.50;99.90;;;;;;5094853;28;20399;-66
2024/01/21 02:56:24;;;;;;;6.82;2.85;;;0.50;99.90;;;;;;5094955;28;20025;-65
2024/01/21 02:58:51;;;;;;;5.13;2.85;;;0.60;99.90;;;;;;5094819;28;20020;-65
2024/01/21 03:01:17;;;;;;;3.83;1.85;;;0.60;99.90;;;;;;5094389;28;20055;-66
2024/01/21 03:03:43;;;;;;;5.75;2.85;;;0.60;99.90;;;;;;5094608;28;20044;-65
2024/01/21 03:06:09;;;;;;;6.95;2.70;;;0.60;99.90;;;;;;5094166;28;20024;-66
2024/01/21 03:08:34;;;;;;;4.38;2.13;;;0.60;99.90;;;;;;5094453;28;20028;-65
2024/01/21 03:11:00;;;;;;;7.00;3.08;;;0.70;99.90;;;;;;5094645;28;20037;-66
2024/01/21 03:13:26;;;;;;;4.40;2.38;;;0.70;99.90;;;;;;5094437;28;20036;-66
2024/01/21 03:15:51;;;;;;;4.38;2.50;;;0.70;99.90;;;;;;5094546;28;20032;-65
2024/01/21 03:18:17;;;;;;;4.47;2.33;;;0.70;99.90;;;;;;5093551;28;20028;-66
2024/01/21 03:20:43;;;;;;;3.88;2.20;;;0.80;99.90;;;;;;5094339;28;20033;-66
2024/01/21 03:23:08;;;;;;;5.88;2.72;;;0.80;99.90;;;;;;5094354;28;20040;-66
2024/01/21 03:25:34;;;;;;;4.82;2.17;;;0.90;99.90;;;;;;5094254;28;20059;-66
2024/01/21 03:27:59;;;;;;;5.00;2.35;;;0.90;99.90;;;;;;5094276;28;20037;-65
2024/01/21 03:30:26;;;;;;;4.90;2.42;;;0.90;99.90;;;;;;5094402;28;20032;-66
2024/01/21 03:32:52;;;;;;;4.32;2.08;;;0.90;99.90;;;;;;5093943;28;20024;-66
2024/01/21 03:35:18;;;;;;;8.93;3.13;;;1.00;99.90;;;;;;5094130;28;20059;-65
2024/01/21 03:37:43;;;;;;;5.68;2.38;;;0.90;99.90;;;;;;5094135;28;20032;-65
2024/01/21 03:40:09;;;;;;;6.22;2.70;;;0.90;99.90;;;;;;5094154;28;20036;-65
2024/01/21 03:42:35;;;;;;;4.78;2.30;;;0.90;99.90;;;;;;5093947;28;20047;-66
2024/01/21 03:45:00;;;;;;;5.18;2.20;;;0.90;99.90;;;;;;5093902;28;20195;-65
2024/01/21 03:47:26;;;;;;;6.55;2.75;;;1.00;99.90;;;;;;5094044;28;20017;-65
2024/01/21 03:49:52;;;;;;;5.22;2.28;;;1.00;99.90;;;;;;5093938;28;20028;-66
2024/01/21 03:52:17;;;;;;;4.85;2.35;;;1.00;99.90;;;;;;5093904;28;20029;-65
2024/01/21 03:54:43;;;;;;;8.48;2.70;;;1.00;99.90;;;;;;5093625;28;20032;-65
2024/01/21 03:57:10;;;;;;;4.05;2.00;;;1.00;99.90;;;;;;5093585;28;20135;-66
2024/01/21 03:59:36;;;;;;;5.13;2.08;;;1.00;99.90;;;;;;5093597;28;20119;-65
2024/01/21 04:02:01;;;;;;;5.22;2.60;;;1.00;99.90;;;;;;5093450;28;20037;-65
2024/01/21 04:04:28;;;;;;;6.53;2.40;;;1.00;99.90;;;;;;5093341;28;20475;-66
2024/01/21 04:06:53;;;;;;;4.30;2.05;;;1.10;99.90;;;;;;5093364;28;20042;-65
2024/01/21 04:09:23;;;;;;;6.85;2.42;;;1.10;99.90;;;;;;5093324;28;20020;-66
2024/01/21 04:11:49;;;;;;;5.00;2.35;;;1.10;99.90;;;;;;5093377;28;20031;-66
2024/01/21 04:14:15;;;;;;;7.65;2.45;;;1.10;99.90;;;;;;5093355;28;20048;-66
2024/01/21 04:16:40;;;;;;;5.63;2.58;;;1.20;99.90;;;;;;5092577;28;20036;-66
2024/01/21 04:19:07;;;;;;;6.50;2.45;;;1.20;99.90;;;;;;5093078;28;20033;-66
2024/01/21 04:21:33;;;;;;;6.75;2.65;;;1.20;99.90;;;;;;5093253;28;20025;-66
2024/01/21 04:23:59;;;;;;;2.65;1.65;;;1.20;99.90;;;;;;5093280;28;20029;-65
2024/01/21 04:26:25;;;;;;;6.82;1.88;;;1.20;99.90;;;;;;5093109;28;20024;-66
2024/01/21 04:28:51;;;;;;;4.13;2.08;;;1.20;99.90;;;;;;5093027;28;20043;-66
2024/01/21 04:31:16;;;;;;;4.30;2.38;;;1.20;99.90;;;;;;5093087;28;20419;-65
2024/01/21 04:33:42;;;;;;;3.25;1.65;;;1.20;99.90;;;;;;5091661;28;20028;-65
2024/01/21 04:36:08;;;;;;;4.65;1.90;;;1.20;99.90;;;;;;5092954;28;20059;-65
2024/01/21 04:38:34;;;;;;;5.57;2.45;;;1.20;99.90;;;;;;5092839;28;20017;-66
2024/01/21 04:41:00;;;;;;;5.63;2.15;;;1.30;99.90;;;;;;5092822;28;20027;-66
2024/01/21 04:43:25;;;;;;;4.25;2.10;;;1.20;99.90;;;;;;5092849;28;20032;-65
2024/01/21 04:45:51;;;;;;;6.05;2.45;;;1.30;99.90;;;;;;5092752;28;20024;-65
2024/01/21 04:48:17;;;;;;;4.40;2.28;;;1.20;99.90;;;;;;5091630;28;20033;-65
2024/01/21 04:50:42;;;;;;;5.47;2.00;;;1.30;99.90;;;;;;5092755;28;20029;-65
2024/01/21 04:53:08;;;;;;;7.75;2.65;;;1.30;99.90;;;;;;5092767;28;20040;-65
2024/01/21 04:55:33;;;;;;;6.63;2.60;;;1.30;99.90;;;;;;5092610;28;20028;-66
2024/01/21 04:57:59;;;;;;;5.72;2.30;;;1.30;99.90;;;;;;5092669;28;20036;-65
2024/01/21 05:00:25;;;;;;;6.10;3.03;;;1.30;99.90;;;;;;5092660;28;20072;-66
2024/01/21 05:02:50;;;;;;;3.67;1.60;;;1.40;99.90;;;;;;5092172;28;20540;-65
2024/01/21 05:05:16;;;;;;;4.57;2.28;;;1.40;99.90;;;;;;5092654;28;20035;-65
2024/01/21 05:07:41;;;;;;;3.38;1.80;;;1.50;99.90;;;;;;5092511;28;20060;-65
2024/01/21 05:10:08;;;;;;;3.42;1.42;;;1.50;99.90;;;;;;5092425;28;20046;-66
2024/01/21 05:12:33;;;;;;;4.38;1.90;;;1.50;99.90;;;;;;5092389;28;20046;-65
2024/01/21 05:14:59;;;;;;;6.32;2.15;;;1.60;99.90;;;;;;5092375;28;20467;-65
2024/01/21 05:17:24;;;;;;;4.03;2.30;;;1.60;99.90;;;;;;5092358;28;20028;-65
2024/01/21 05:19:50;;;;;;;4.72;2.30;;;1.60;99.90;;;;;;5092234;28;20037;-66
2024/01/21 05:22:16;;;;;;;4.65;2.22;;;1.60;99.90;;;;;;5092314;28;20037;-66
2024/01/21 05:24:41;;;;;;;3.80;1.95;;;1.70;99.90;;;;;;5092206;28;20040;-65
2024/01/21 05:27:07;;;;;;;4.55;2.20;;;1.70;99.90;;;;;;5092337;28;20052;-65
2024/01/21 05:29:32;;;;;;;4.70;2.17;;;1.80;99.90;;;;;;5092031;28;20028;-65
2024/01/21 05:31:58;;;;;;;5.28;2.55;;;1.80;99.90;;;;;;5092283;28;20032;-65
2024/01/21 05:34:24;;;;;;;6.32;2.88;;;1.80;99.90;;;;;;5091910;28;20088;-65
2024/01/21 05:36:49;;;;;;;7.70;2.63;;;1.80;99.90;;;;;;5092035;28;20104;-65
2024/01/21 05:39:15;;;;;;;5.78;2.10;;;1.80;99.90;;;;;;5092001;28;20076;-66
2024/01/21 05:41:40;;;;;;;4.20;1.92;;;1.80;99.90;;;;;;5092096;28;20483;-65
2024/01/21 05:44:06;;;;;;;5.20;2.47;;;1.80;99.90;;;;;;5092177;28;20057;-65
2024/01/21 05:46:32;;;;;;;8.07;3.42;;;1.80;99.90;;;;;;5092096;28;20158;-66
2024/01/21 05:48:58;;;;;;;4.90;1.95;;;1.80;99.90;;;;;;5092073;28;20032;-64
2024/01/21 05:51:24;;;;;;;4.75;2.22;;;1.90;99.90;;;;;;5092052;28;20028;-65
2024/01/21 05:53:49;;;;;;;5.57;2.65;;;1.90;99.90;;;;;;5090749;28;20491;-66
2024/01/21 05:56:18;;;;;;;4.93;2.50;;;1.90;99.90;;;;;;5091930;28;20028;-65
2024/01/21 05:58:44;;;;;;;4.47;2.28;;;2.00;99.90;;;;;;5091969;28;20418;-65
2024/01/21 06:01:09;;;;;;;5.35;2.50;;;2.00;99.90;;;;;;5091680;28;20048;-65
2024/01/21 06:03:35;;;;;;;7.55;2.88;;;2.00;99.90;;;;;;5091736;28;20037;-65
2024/01/21 06:06:01;;;;;;;7.32;2.63;;;2.10;99.90;;;;;;5091896;28;20037;-65
2024/01/21 06:08:29;;;;;;;6.25;2.95;;;2.10;99.90;;;;;;5091807;28;20036;-65
2024/01/21 06:10:55;;;;;;;5.80;3.28;;;2.10;99.90;;;;;;5091936;28;20052;-65
2024/01/21 06:13:20;;;;;;;6.75;3.03;;;2.10;99.90;;;;;;5091842;28;20036;-66
2024/01/21 06:15:46;;;;;;;8.45;2.90;;;2.20;99.90;;;;;;5091866;28;20031;-65
2024/01/21 06:18:11;;;;;;;6.32;2.83;;;2.20;99.90;;;;;;5091829;28;20032;-66
2024/01/21 06:20:37;;;;;;;6.80;3.25;;;2.20;99.90;;;;;;5091734;28;20033;-65
2024/01/21 06:23:03;;;;;;;7.25;2.88;;;2.20;99.90;;;;;;5091698;28;20036;-65
2024/01/21 06:25:28;;;;;;;8.45;3.22;;;2.20;99.90;;;;;;5091743;28;20041;-65
2024/01/21 06:27:54;;;;;;;7.47;3.83;;;2.30;99.90;;;;;;5091700;28;20515;-65
2024/01/21 06:30:22;;;;;;;8.98;3.13;;;2.30;99.90;;;;;;5091572;28;20033;-65
2024/01/21 06:32:48;;;;;;;6.78;3.58;;;2.30;99.90;;;;;;5091467;28;20031;-66
2024/01/21 06:35:14;;;;;;;5.53;2.97;;;2.30;99.90;;;;;;5091595;28;20017;-66
2024/01/21 06:37:40;;;;;;;8.48;3.17;;;2.40;99.90;;;;;;5091466;28;20287;-66
2024/01/21 06:40:07;;;;;;;8.82;3.55;;;2.40;99.90;;;;;;5092075;28;20040;-65
2024/01/21 06:42:32;;;;;;;6.82;3.20;;;2.50;99.90;;;;;;5095206;28;20024;-65
2024/01/21 06:44:58;;;;;;;6.22;3.60;;;2.50;99.90;;;;;;5095120;28;20025;-65
2024/01/21 06:47:24;;;;;;;6.50;2.30;;;2.50;99.90;;;;;;5095174;28;20036;-66
2024/01/21 06:49:50;;;;;;;10.70;3.58;;;2.60;99.90;;;;;;5095010;28;20036;-65
2024/01/21 06:52:15;;;;;;;7.95;4.18;;;2.60;99.90;;;;;;5094025;28;20051;-65
2024/01/21 06:54:41;;;;;;;6.30;3.03;;;2.60;99.90;;;;;;5094830;28;20037;-65
2024/01/21 06:57:07;;;;;;;7.97;2.92;;;2.70;99.90;;;;;;5094915;28;20053;-66
2024/01/21 06:59:32;;;;;;;6.50;3.00;;;2.70;99.90;;;;;;5094850;28;20183;-66
2024/01/21 07:01:58;;;;;;;6.22;2.97;;;2.70;99.90;;;;;;5094728;28;20045;-66
2024/01/21 07:04:23;;;;;;;9.32;3.05;;;2.70;99.90;;;;;;5094622;28;20043;-65
2024/01/21 07:06:49;;;;;;;7.03;3.05;;;2.70;99.90;;;;;;5094589;28;20028;-66
2024/01/21 07:09:15;;;;;;;7.22;3.47;;;2.80;99.90;;;;;;5094706;28;20032;-65
2024/01/21 07:11:41;;;;;;;7.43;3.40;;;2.80;99.90;;;;;;5094665;28;20031;-66
2024/01/21 07:14:07;;;;;;;6.28;3.55;;;2.80;99.90;;;;;;5094596;28;20024;-66
2024/01/21 07:16:32;;;;;;;5.70;3.17;;;2.80;99.90;;;;;;5094614;28;20025;-66
2024/01/21 07:18:58;;;;;;;6.22;3.15;;;2.80;99.90;;;;;;5094478;28;20029;-65
2024/01/21 07:21:23;;;;;;;5.47;2.97;;;2.90;99.90;;;;;;5094349;28;20031;-66
2024/01/21 07:23:49;;;;;;;7.35;3.15;;;2.90;99.90;;;;;;5094408;28;20028;-66
2024/01/21 07:26:14;;;;;;;6.55;3.10;;;2.90;99.90;;;;;;5094402;28;20033;-66
2024/01/21 07:28:40;;;;;;;11.88;4.43;;;2.90;99.90;;;;;;5094388;28;20254;-65
2024/01/21 07:31:06;;;;;;;7.95;3.08;;;2.90;99.90;;;;;;5094384;28;20115;-65
2024/01/21 07:33:31;;;;;;;8.85;3.53;;;3.00;99.90;;;;;;5094091;28;20163;-66
2024/01/21 07:35:58;;;;;;;7.75;3.72;;;3.00;99.90;;;;;;5094199;28;20107;-65
2024/01/21 07:38:23;;;;;;;7.97;2.92;;;3.00;99.90;;;;;;5094100;28;20016;-66
2024/01/21 07:40:49;;;;;;;5.85;2.58;;;3.00;99.90;;;;;;5094096;28;20051;-66
2024/01/21 07:43:15;;;;;;;7.85;3.65;;;3.10;99.90;;;;;;5093963;28;20028;-65
2024/01/21 07:45:41;;;;;;;6.75;2.92;;;3.10;99.90;;;;;;5093943;28;20031;-66
2024/01/21 07:48:07;;;;;;;7.18;3.40;;;3.10;99.90;;;;;;5094001;28;20024;-66
2024/01/21 07:50:33;;;;;;;6.93;3.25;;;3.10;99.90;;;;;;5093796;28;20059;-65
2024/01/21 07:52:58;;;;;;;5.00;2.67;;;3.10;99.90;;;;;;5093764;28;20033;-65
2024/01/21 07:55:24;;;;;;;4.97;2.67;;;3.10;99.90;;;;;;5093848;28;20021;-66
2024/01/21 07:57:50;;;;;;;8.95;3.25;;;3.20;99.80;;;;;;5093904;28;20029;-65
2024/01/21 08:00:15;;;;;;;6.95;3.00;;;3.10;99.90;;;;;;5093726;28;20036;-65
2024/01/21 08:02:41;;;;;;;8.07;3.00;;;3.10;99.90;;;;;;5093322;28;20052;-66
2024/01/21 08:05:07;;;;;;;7.70;3.25;;;3.20;99.90;;;;;;5093492;28;20040;-66
2024/01/21 08:07:32;;;;;;;10.15;3.42;;;3.20;99.90;;;;;;5093435;28;20088;-66
2024/01/21 08:09:58;;;;;;;8.40;2.95;;;3.20;99.90;;;;;;5093441;28;20039;-66
2024/01/21 08:12:24;;;;;;;10.48;3.47;;;3.30;99.90;;;;;;5093482;28;20021;-66
2024/01/21 08:14:49;;;;;;;6.00;3.05;;;3.30;99.90;;;;;;5093425;28;20027;-66
2024/01/21 08:17:15;;;;;;;7.13;3.45;;;3.30;99.90;;;;;;5093403;28;20463;-65
2024/01/21 08:19:40;;;;;;;6.32;2.70;;;3.30;99.20;;;;;;5093178;28;20032;-66
2024/01/21 08:22:10;;;;;;;8.52;3.40;;;3.30;99.90;;;;;;5093356;28;20029;-65
2024/01/21 08:24:36;;;;;;;7.85;3.80;;;3.30;99.90;;;;;;5093301;28;20029;-66
2024/01/21 08:27:02;;;;;;;7.45;3.13;;;3.30;99.90;;;;;;5093244;28;20035;-66
2024/01/21 08:29:28;;;;;;;8.77;3.75;;;3.30;98.80;;;;;;5093114;28;20525;-66
2024/01/21 08:31:56;;;;;;;9.45;3.60;;;3.40;99.90;;;;;;5093045;28;20037;-65
2024/01/21 08:34:22;;;;;;;7.20;3.58;;;3.30;99.90;;;;;;5092732;28;20028;-65
2024/01/21 08:36:47;;;;;;;7.40;3.40;;;3.30;99.90;;;;;;5092980;28;20028;-66
2024/01/21 08:39:13;;;;;;;7.57;2.70;;;3.40;99.90;;;;;;5091968;28;20025;-65
2024/01/21 08:41:39;;;;;;;6.68;3.50;;;3.40;99.90;;;;;;5092963;28;20027;-66
2024/01/21 08:44:05;;;;;;;9.07;3.35;;;3.40;99.90;;;;;;5092822;28;20487;-66
2024/01/21 08:46:30;;;;;;;7.10;3.15;;;3.50;99.90;;;;;;5092791;28;20021;-67
2024/01/21 08:48:57;;;;;;;8.73;3.83;;;3.50;99.90;;;;;;5092648;28;20654;-66
2024/01/21 08:51:23;;;;;;;5.53;2.80;;;3.50;99.90;;;;;;5092830;28;20048;-66
2024/01/21 08:53:55;;;;;;;6.45;3.05;;;3.50;99.90;;;;;;5092684;28;20025;-66
2024/01/21 08:56:23;;;;;;;6.32;3.22;;;3.60;99.90;;;;;;5092765;28;20035;-66
2024/01/21 08:58:49;;;;;;;4.88;2.70;;;3.60;99.90;;;;;;5083584;28;20059;-65
2024/01/21 09:01:15;;;;;;;8.05;3.60;;;3.60;99.90;;;;;;5092419;28;20102;-66
2024/01/21 09:03:41;;;;;;;6.40;2.83;;;3.60;99.90;;;;;;5091944;28;20082;-66
2024/01/21 09:06:07;;;;;;;8.75;3.42;;;3.60;99.90;;;;;;5091672;28;20088;-66
2024/01/21 09:08:32;;;;;;;8.13;3.13;;;3.70;99.90;;;;;;5091465;28;20097;-66
2024/01/21 09:10:58;;;;;;;6.60;2.97;;;3.70;99.90;;;;;;5092418;28;20036;-66
2024/01/21 09:13:23;;;;;;;6.07;3.40;;;3.70;99.90;;;;;;5091493;28;20157;-66
2024/01/21 09:15:49;;;;;;;5.60;3.33;;;3.70;99.90;;;;;;5092410;28;20037;-65
2024/01/21 09:18:15;;;;;;;6.13;2.88;;;3.80;99.90;;;;;;5092533;28;20043;-66
2024/01/21 09:20:40;;;;;;;6.50;3.03;;;3.80;99.90;;;;;;5074231;28;20036;-66
2024/01/21 09:23:06;;;;;;;8.20;3.17;;;3.80;99.90;;;;;;5072253;28;20025;-66
2024/01/21 09:25:31;;;;;;;7.55;3.60;;;3.90;99.90;;;;;;5072366;28;20036;-65
2024/01/21 09:27:57;;;;;;;8.85;3.50;;;3.90;99.90;;;;;;5071206;28;20067;-65
2024/01/21 09:30:22;;;;;;;5.78;2.95;;;3.90;99.90;;;;;;5072085;28;20029;-64
2024/01/21 09:32:48;;;;;;;6.95;2.95;;;3.90;99.90;;;;;;5071907;28;20037;-65
2024/01/21 09:35:14;;;;;;;6.25;3.28;;;3.90;99.90;;;;;;5072172;28;20045;-65
2024/01/21 09:37:39;;;;;;;6.18;3.28;;;3.90;99.90;;;;;;5072059;28;20653;-65
2024/01/21 09:40:05;;;;;;;8.43;3.45;;;4.00;99.90;;;;;;5072182;28;20090;-65
2024/01/21 09:42:31;;;;;;;7.05;3.17;;;4.00;99.90;;;;;;5072128;28;20116;-65
2024/01/21 09:44:57;;;;;;;5.60;2.95;;;4.00;99.90;;;;;;5071972;28;20025;-66
2024/01/21 09:47:24;;;;;;;7.85;3.78;;;4.00;99.90;;;;;;5072080;28;20100;-66
2024/01/21 09:49:51;;;;;;;7.95;3.25;;;4.00;99.90;;;;;;5072043;28;20025;-65
2024/01/21 09:52:18;;;;;;;8.15;3.47;;;4.10;99.90;;;;;;5070974;28;20022;-65
2024/01/21 09:54:45;;;;;;;6.43;3.17;;;4.00;99.90;;;;;;5070719;28;20088;-65
2024/01/21 09:57:12;;;;;;;5.95;3.22;;;4.10;99.90;;;;;;5071951;28;20040;-66
2024/01/21 09:59:39;;;;;;;6.78;3.33;;;4.10;99.90;;;;;;5071862;28;20032;-66
2024/01/21 10:02:12;;;;;;;6.35;2.80;;;4.10;99.90;;;;;;5070916;28;20079;-64
2024/01/21 10:04:38;;;;;;;8.32;4.00;;;4.10;99.90;;;;;;5071615;28;20032;-65
2024/01/21 10:07:04;;;;;;;5.28;3.00;;;4.10;99.90;;;;;;5071682;28;20044;-66
2024/01/21 10:09:29;;;;;;;4.95;3.05;;;4.10;99.90;;;;;;5071567;28;20083;-65
2024/01/21 10:11:57;;;;;;;8.65;3.85;;;4.10;99.90;;;;;;5071411;28;20036;-65
2024/01/21 10:14:27;;;;;;;5.32;2.70;;;4.10;99.90;;;;;;5071515;28;20029;-66
2024/01/21 10:16:54;;;;;;;5.85;3.08;;;4.10;99.90;;;;;;5075071;28;20021;-66
2024/01/21 10:19:31;;;;;;;5.10;2.83;;;4.10;99.90;;;;;;5075415;28;20025;-66
2024/01/21 10:22:13;;;;;;;6.53;3.10;;;4.20;99.90;;;;;;5075197;28;20104;-65
2024/01/21 10:24:46;;;;;;;7.10;3.13;;;4.20;99.90;;;;;;5075213;28;20024;-64
2024/01/21 10:27:12;;;;;;;6.40;3.22;;;4.20;99.90;;;;;;5075278;28;20055;-66
2024/01/21 10:29:47;;;;;;;7.45;3.45;;;4.20;99.90;;;;;;5075132;28;20025;-65
2024/01/21 10:32:15;;;;;;;4.95;2.85;;;4.30;99.90;;;;;;5074956;28;20033;-64
2024/01/21 10:34:44;;;;;;;10.25;4.13;;;4.30;99.90;;;;;;5074762;28;20033;-65
2024/01/21 10:37:13;;;;;;;7.40;3.00;;;4.40;99.90;;;;;;5074929;28;20049;-66
2024/01/21 10:39:43;;;;;;;7.32;3.05;;;4.40;99.90;;;;;;5075001;28;20460;-67
2024/01/21 10:42:09;;;;;;;5.82;3.45;;;4.50;99.90;;;;;;5074945;28;20032;-65
2024/01/21 10:44:35;;;;;;;7.47;3.25;;;4.50;99.90;;;;;;5075142;28;20029;-65
2024/01/21 10:47:04;;;;;;;7.90;2.92;;;4.50;99.90;;;;;;5074973;28;20017;-64
2024/01/21 10:49:32;;;;;;;6.47;3.38;;;4.50;99.90;;;;;;5074625;28;20029;-65
2024/01/21 10:51:58;;;;;;;7.55;3.35;;;4.40;99.90;;;;;;5074655;28;20025;-65
2024/01/21 10:54:25;;;;;;;8.07;4.18;;;4.40;99.90;;;;;;5074685;28;20021;-65
2024/01/21 10:56:51;;;;;;;7.85;3.75;;;4.50;99.90;;;;;;5074684;28;20081;-64
2024/01/21 10:59:17;;;;;;;6.90;2.40;;;4.50;99.90;;;;;;5074703;28;20025;-66
2024/01/21 11:01:43;;;;;;;7.82;4.00;;;4.50;99.90;;;;;;5074133;28;20049;-65
2024/01/21 11:04:13;;;;;;;7.03;3.38;;;4.40;99.90;;;;;;5074165;28;20037;-68
2024/01/21 11:06:58;;;;;;;8.45;3.78;;;4.40;99.90;;;;;;5074584;28;20021;-65
2024/01/21 11:09:26;;;;;;;8.43;3.63;;;4.40;99.90;;;;;;5074542;28;20056;-65
2024/01/21 11:11:52;;;;;;;4.95;2.83;;;4.30;99.90;;;;;;5074283;28;20036;-66
2024/01/21 11:14:34;;;;;;;9.23;3.83;;;4.30;99.90;;;;;;5074302;28;20084;-66
2024/01/21 11:17:06;;;;;;;6.45;3.72;;;4.30;99.90;;;;;;5074493;28;20021;-66
2024/01/21 11:19:44;;;;;;;8.07;3.80;;;4.40;99.90;;;;;;5074119;28;20017;-66
2024/01/21 11:22:11;;;;;;;7.18;3.17;;;4.40;99.90;;;;;;5074197;28;20021;-65
2024/01/21 11:24:37;;;;;;;7.97;4.03;;;4.40;99.90;;;;;;5074165;28;20037;-65
2024/01/21 11:27:03;;;;;;;11.68;3.72;;;4.50;99.90;;;;;;5073712;28;20044;-65
2024/01/21 11:29:33;;;;;;;6.45;2.75;;;4.60;99.90;;;;;;5074209;28;20040;-65
2024/01/21 11:32:01;;;;;;;9.50;3.55;;;4.60;99.90;;;;;;5073928;28;20112;-66
2024/01/21 11:34:45;;;;;;;7.10;3.42;;;4.70;99.90;;;;;;5073682;28;20060;-66
2024/01/21 11:37:14;;;;;;;9.13;4.30;;;4.70;99.90;;;;;;5073897;28;20017;-65
2024/01/21 11:39:41;;;;;;;7.28;3.55;;;4.80;99.90;;;;;;5073614;28;20021;-66
2024/01/21 11:42:08;;;;;;;7.68;3.58;;;4.80;99.90;;;;;;5073645;28;20059;-65
2024/01/21 11:44:35;;;;;;;8.27;3.45;;;4.90;99.90;;;;;;5073678;28;20025;-66
2024/01/21 11:47:03;;;;;;;7.32;3.60;;;4.90;99.90;;;;;;5073779;28;20033;-65
2024/01/21 11:49:30;;;;;;;8.05;3.90;;;5.00;99.90;;;;;;5073837;28;20021;-66
2024/01/21 11:51:57;;;;;;;8.00;3.22;;;5.00;99.90;;;;;;5073428;28;20036;-66
2024/01/21 11:54:23;;;;;;;9.88;3.55;;;5.10;99.90;;;;;;5073431;28;20033;-66
2024/01/21 11:56:50;;;;;;;7.75;4.05;;;5.10;99.90;;;;;;5073577;28;20029;-66
2024/01/21 11:59:16;;;;;;;8.68;4.80;;;5.10;99.90;;;;;;5073536;28;20018;-66
2024/01/21 12:01:42;;;;;;;8.77;4.15;;;5.20;99.90;;;;;;5073211;28;20053;-65
2024/01/21 12:04:09;;;;;;;8.63;3.88;;;5.20;99.90;;;;;;5073147;28;20041;-66
2024/01/21 12:06:45;;;;;;;8.02;3.03;;;5.30;99.90;;;;;;5073346;28;20031;-65
2024/01/21 12:09:11;;;;;;;13.27;4.20;;;5.30;99.90;;;;;;5073278;28;20055;-66
2024/01/21 12:11:38;;;;;;;6.22;2.90;;;5.40;99.90;;;;;;5073285;28;20104;-66
2024/01/21 12:14:09;;;;;;;6.95;3.65;;;5.40;99.90;;;;;;5073064;28;20029;-66
2024/01/21 12:16:35;;;;;;;8.52;3.80;;;5.40;99.90;;;;;;5073306;28;20021;-66
2024/01/21 12:19:02;;;;;;;6.72;3.67;;;5.50;99.90;;;;;;5073115;28;20120;-65
2024/01/21 12:21:29;;;;;;;6.65;3.22;;;5.50;99.90;;;;;;5072887;28;20018;-65
2024/01/21 12:23:56;;;;;;;8.40;3.67;;;5.50;99.90;;;;;;5073027;28;20051;-67
2024/01/21 12:26:22;;;;;;;8.13;4.30;;;5.50;99.90;;;;;;5073233;28;20032;-65
2024/01/21 12:29:05;;;;;;;7.15;3.00;;;5.50;99.90;;;;;;5073193;28;20036;-65
2024/01/21 12:31:33;;;;;;;11.63;4.10;;;5.60;99.90;;;;;;5073091;28;20082;-66
2024/01/21 12:34:03;;;;;;;8.32;4.43;;;5.60;99.90;;;;;;5072774;28;20024;-66
2024/01/21 12:36:30;;;;;;;7.78;3.45;;;5.60;99.90;;;;;;5073110;28;20021;-66
2024/01/21 12:38:57;;;;;;;7.90;3.70;;;5.60;99.90;;;;;;5072075;28;20035;-67
2024/01/21 12:41:23;;;;;;;7.25;3.47;;;5.60;99.90;;;;;;5072911;28;20045;-66
2024/01/21 12:43:52;;;;;;;8.02;3.90;;;5.60;99.90;;;;;;5072758;28;20033;-66
2024/01/21 12:46:20;;;;;;;3.85;2.45;;;5.60;99.90;;;;;;5072792;28;20046;-66
2024/01/21 12:48:47;;;;;;;9.73;4.18;;;5.60;99.90;;;;;;5072861;28;20021;-66
2024/01/21 12:51:19;;;;;;;7.90;4.00;;;5.60;99.90;;;;;;5072756;28;20047;-66